createdAt,value
2017-09-02T00:00:23.916Z,61.56
2017-09-02T00:01:04.387Z,61.56
2017-09-02T00:01:44.832Z,61.66
2017-09-02T00:02:25.279Z,61.36
2017-09-02T00:03:05.737Z,61.66
2017-09-02T00:03:46.189Z,61.56
2017-09-02T00:04:26.649Z,61.36
2017-09-02T00:05:07.103Z,61.66
2017-09-02T00:05:47.559Z,61.36
2017-09-02T00:06:28.065Z,61.36
2017-09-02T00:07:08.523Z,61.46
2017-09-02T00:07:48.971Z,61.76
2017-09-02T00:08:29.572Z,61.46
2017-09-02T00:09:10.028Z,61.56
2017-09-02T00:09:50.482Z,61.46
2017-09-02T00:10:30.943Z,61.46
2017-09-02T00:11:11.397Z,61.46
2017-09-02T00:11:51.856Z,61.36
2017-09-02T00:12:32.316Z,61.56
2017-09-02T00:13:12.749Z,61.46
2017-09-02T00:13:53.200Z,61.46
2017-09-02T00:14:33.653Z,61.66
2017-09-02T00:15:14.109Z,61.46
2017-09-02T00:15:54.553Z,61.66
2017-09-02T00:16:35.005Z,61.66
2017-09-02T00:17:15.458Z,61.66
2017-09-02T00:17:55.913Z,61.27
2017-09-02T00:18:36.371Z,61.46
2017-09-02T00:19:16.830Z,61.56
2017-09-02T00:19:57.307Z,61.56
2017-09-02T00:20:37.767Z,61.27
2017-09-02T00:21:18.219Z,61.46
2017-09-02T00:21:58.673Z,61.46
2017-09-02T00:22:39.124Z,61.27
2017-09-02T00:23:19.577Z,61.46
2017-09-02T00:24:00.031Z,61.56
2017-09-02T00:24:40.491Z,61.56
2017-09-02T00:25:20.953Z,61.56
2017-09-02T00:26:01.417Z,61.56
2017-09-02T00:26:41.870Z,61.66
2017-09-02T00:27:22.480Z,61.36
2017-09-02T00:28:02.930Z,61.66
2017-09-02T00:28:43.374Z,61.66
2017-09-02T00:29:23.828Z,61.56
2017-09-02T00:30:04.293Z,61.66
2017-09-02T00:30:44.754Z,61.66
2017-09-02T00:31:25.200Z,61.36
2017-09-02T00:32:05.727Z,61.66
2017-09-02T00:32:46.176Z,61.56
2017-09-02T00:33:26.638Z,61.56
2017-09-02T00:34:07.093Z,61.46
2017-09-02T00:34:47.555Z,61.46
2017-09-02T00:35:28.006Z,61.46
2017-09-02T00:36:08.462Z,61.46
2017-09-02T00:36:48.923Z,61.46
2017-09-02T00:37:29.376Z,61.46
2017-09-02T00:38:09.830Z,61.66
2017-09-02T00:38:50.280Z,61.46
2017-09-02T00:39:30.738Z,61.56
2017-09-02T00:40:11.198Z,61.46
2017-09-02T00:40:51.644Z,61.46
2017-09-02T00:41:32.093Z,61.76
2017-09-02T00:42:12.553Z,61.36
2017-09-02T00:42:53.011Z,61.46
2017-09-02T00:43:33.489Z,61.76
2017-09-02T00:45:31.177Z,61.46
2017-09-02T00:46:11.671Z,61.46
2017-09-02T00:46:52.107Z,61.76
2017-09-02T00:47:32.550Z,61.27
2017-09-02T00:48:13.001Z,61.76
2017-09-02T00:48:53.450Z,61.46
2017-09-02T00:49:33.919Z,61.46
2017-09-02T00:50:14.356Z,61.66
2017-09-02T00:50:54.807Z,61.46
2017-09-02T00:51:35.265Z,61.46
2017-09-02T00:52:15.721Z,61.66
2017-09-02T00:52:56.171Z,61.76
2017-09-02T00:53:36.620Z,61.76
2017-09-02T00:54:17.066Z,61.85
2017-09-02T00:54:57.536Z,61.66
2017-09-02T00:55:38.005Z,61.85
2017-09-02T00:56:18.442Z,61.85
2017-09-02T00:56:58.897Z,61.85
2017-09-02T00:57:39.349Z,61.85
2017-09-02T00:58:19.806Z,61.85
2017-09-02T00:59:00.260Z,61.66
2017-09-02T00:59:40.714Z,61.66
2017-09-02T01:00:21.255Z,61.85
2017-09-02T01:01:01.706Z,61.85
2017-09-02T01:01:42.157Z,61.85
2017-09-02T01:02:22.606Z,61.76
2017-09-02T01:03:03.063Z,61.85
2017-09-02T01:03:43.532Z,61.85
2017-09-02T01:04:23.975Z,61.76
2017-09-02T01:05:04.448Z,61.85
2017-09-02T01:05:44.890Z,61.66
2017-09-02T01:06:25.345Z,61.85
2017-09-02T01:07:05.806Z,61.66
2017-09-02T01:07:46.256Z,61.85
2017-09-02T01:08:26.753Z,61.76
2017-09-02T01:09:07.206Z,61.76
2017-09-02T01:09:47.666Z,61.76
2017-09-02T01:10:28.275Z,61.76
2017-09-02T01:11:08.726Z,61.85
2017-09-02T01:11:49.178Z,61.85
2017-09-02T01:12:29.634Z,61.66
2017-09-02T01:13:10.082Z,61.36
2017-09-02T01:13:50.539Z,61.85
2017-09-02T01:14:30.999Z,61.76
2017-09-02T01:15:11.448Z,61.36
2017-09-02T01:15:51.895Z,61.76
2017-09-02T01:16:32.345Z,61.85
2017-09-02T01:17:12.808Z,61.66
2017-09-02T01:17:53.263Z,61.76
2017-09-02T01:18:33.711Z,61.76
2017-09-02T01:19:14.181Z,61.76
2017-09-02T01:19:54.630Z,61.46
2017-09-02T01:20:35.090Z,61.76
2017-09-02T01:21:15.543Z,61.46
2017-09-02T01:21:56.001Z,61.46
2017-09-02T01:22:36.454Z,61.56
2017-09-02T01:23:16.900Z,61.56
2017-09-02T01:23:57.359Z,61.66
2017-09-02T01:24:37.808Z,61.66
2017-09-02T01:25:18.269Z,61.27
2017-09-02T01:25:58.716Z,61.66
2017-09-02T01:26:39.160Z,61.66
2017-09-02T01:27:19.617Z,61.66
2017-09-02T01:28:00.077Z,61.66
2017-09-02T01:28:40.523Z,61.76
2017-09-02T01:29:20.982Z,61.76
2017-09-02T01:30:01.435Z,61.66
2017-09-02T01:30:41.884Z,61.66
2017-09-02T01:31:22.352Z,61.56
2017-09-02T01:32:02.917Z,61.76
2017-09-02T01:32:43.374Z,61.27
2017-09-02T01:33:23.828Z,61.46
2017-09-02T01:34:04.285Z,61.66
2017-09-02T01:34:44.741Z,61.66
2017-09-02T01:35:25.190Z,61.46
2017-09-02T01:36:05.666Z,61.46
2017-09-02T01:36:46.122Z,61.46
2017-09-02T01:37:26.643Z,61.56
2017-09-02T01:38:07.097Z,61.36
2017-09-02T01:38:47.546Z,61.36
2017-09-02T01:39:28.057Z,61.36
2017-09-02T01:40:08.511Z,61.66
2017-09-02T01:40:48.968Z,61.56
2017-09-02T01:41:29.419Z,61.46
2017-09-02T01:42:09.877Z,61.56
2017-09-02T01:42:50.336Z,61.56
2017-09-02T01:43:30.782Z,61.46
2017-09-02T01:44:11.237Z,61.56
2017-09-02T01:44:51.692Z,61.56
2017-09-02T01:45:32.158Z,61.66
2017-09-02T01:46:12.602Z,61.66
2017-09-02T01:46:53.053Z,61.27
2017-09-02T01:47:33.509Z,61.46
2017-09-02T01:48:13.963Z,61.46
2017-09-02T01:48:54.418Z,61.46
2017-09-02T01:49:34.881Z,61.46
2017-09-02T01:50:15.338Z,61.36
2017-09-02T01:50:55.796Z,61.46
2017-09-02T01:51:36.252Z,61.56
2017-09-02T01:52:16.719Z,61.46
2017-09-02T01:52:57.188Z,61.56
2017-09-02T01:53:37.645Z,61.66
2017-09-02T01:54:18.105Z,61.27
2017-09-02T01:54:58.557Z,61.46
2017-09-02T01:55:39.015Z,61.46
2017-09-02T01:56:19.469Z,61.46
2017-09-02T01:56:59.924Z,61.56
2017-09-02T01:57:40.373Z,61.36
2017-09-02T01:58:20.849Z,61.36
2017-09-02T01:59:01.305Z,61.36
2017-09-02T01:59:41.758Z,61.66
2017-09-02T02:00:22.267Z,61.36
2017-09-02T02:01:02.716Z,61.36
2017-09-02T02:01:43.172Z,61.56
2017-09-02T02:02:23.708Z,61.36
2017-09-02T02:03:04.147Z,61.36
2017-09-02T02:03:44.599Z,61.33
2017-09-02T02:04:25.054Z,61.33
2017-09-02T02:05:05.545Z,61.82
2017-09-02T02:05:45.998Z,61.76
2017-09-02T02:06:26.451Z,61.82
2017-09-02T02:07:06.935Z,61.63
2017-09-02T02:07:47.393Z,61.33
2017-09-02T02:08:27.859Z,61.72
2017-09-02T02:09:08.322Z,61.43
2017-09-02T02:09:48.783Z,61.95
2017-09-02T02:10:29.259Z,61.33
2017-09-02T02:11:09.704Z,61.82
2017-09-02T02:11:50.163Z,61.72
2017-09-02T02:12:30.618Z,61.92
2017-09-02T02:13:11.080Z,61.95
2017-09-02T02:13:51.538Z,61.82
2017-09-02T02:14:32.066Z,61.72
2017-09-02T02:15:12.523Z,61.72
2017-09-02T02:15:52.977Z,61.85
2017-09-02T02:16:33.427Z,61.92
2017-09-02T02:17:13.885Z,61.92
2017-09-02T02:17:54.340Z,61.82
2017-09-02T02:18:34.806Z,62.01
2017-09-02T02:19:15.246Z,61.92
2017-09-02T02:19:55.703Z,62.01
2017-09-02T02:20:36.152Z,61.92
2017-09-02T02:21:16.609Z,61.92
2017-09-02T02:21:57.078Z,61.72
2017-09-02T02:22:37.534Z,61.72
2017-09-02T02:23:17.984Z,61.95
2017-09-02T02:23:58.438Z,61.82
2017-09-02T02:24:39.017Z,61.72
2017-09-02T02:25:19.431Z,61.92
2017-09-02T02:25:59.890Z,61.92
2017-09-02T02:26:40.349Z,61.82
2017-09-02T02:27:20.795Z,61.72
2017-09-02T02:28:01.252Z,61.82
2017-09-02T02:28:41.710Z,61.72
2017-09-02T02:29:22.166Z,61.82
2017-09-02T02:30:02.622Z,62.4
2017-09-02T02:30:43.081Z,61.53
2017-09-02T02:31:23.567Z,62.4
2017-09-02T02:32:04.027Z,61.92
2017-09-02T02:32:44.494Z,62.3
2017-09-02T02:33:24.960Z,62.4
2017-09-02T02:34:05.416Z,61.82
2017-09-02T02:34:45.873Z,62.3
2017-09-02T02:35:26.324Z,62.3
2017-09-02T02:36:06.777Z,62.3
2017-09-02T02:36:47.229Z,62.01
2017-09-02T02:37:27.690Z,62.3
2017-09-02T02:38:08.148Z,61.92
2017-09-02T02:38:48.592Z,62.11
2017-09-02T02:39:29.056Z,62.4
2017-09-02T02:40:09.627Z,62.4
2017-09-02T02:40:50.094Z,61.63
2017-09-02T02:41:30.549Z,62.4
2017-09-02T02:42:11.006Z,62.4
2017-09-02T02:42:51.458Z,62.11
2017-09-02T02:43:31.905Z,62.11
2017-09-02T02:44:12.358Z,62.3
2017-09-02T02:44:52.801Z,62.3
2017-09-02T02:45:33.259Z,61.92
2017-09-02T02:46:13.713Z,62.3
2017-09-02T02:46:54.173Z,62.01
2017-09-02T02:47:34.627Z,62.01
2017-09-02T02:48:15.081Z,62.01
2017-09-02T02:48:55.534Z,62.21
2017-09-02T02:49:36.015Z,62.11
2017-09-02T02:50:16.470Z,62.21
2017-09-02T02:50:56.931Z,62.21
2017-09-02T02:51:37.389Z,62.3
2017-09-02T02:52:17.844Z,62.21
2017-09-02T02:52:58.304Z,62.21
2017-09-02T02:53:38.749Z,62.11
2017-09-02T02:54:19.214Z,62.21
2017-09-02T02:54:59.690Z,62.01
2017-09-02T02:55:40.140Z,62.21
2017-09-02T02:56:20.598Z,62.21
2017-09-02T02:57:01.145Z,62.3
2017-09-02T02:57:41.622Z,62.21
2017-09-02T02:58:22.075Z,62.3
2017-09-02T02:59:02.594Z,62.3
2017-09-02T02:59:43.046Z,62.21
2017-09-02T03:00:23.507Z,62.3
2017-09-02T03:01:04.074Z,62.3
2017-09-02T03:02:51.606Z,62.21
2017-09-02T03:03:32.062Z,62.01
2017-09-02T03:04:12.510Z,62.3
2017-09-02T03:04:52.965Z,62.21
2017-09-02T03:05:33.420Z,62.21
2017-09-02T03:06:13.869Z,62.21
2017-09-02T03:06:54.322Z,62.01
2017-09-02T03:07:34.774Z,62.3
2017-09-02T03:08:15.222Z,62.3
2017-09-02T03:08:55.673Z,62.21
2017-09-02T03:09:36.137Z,62.3
2017-09-02T03:10:16.580Z,62.21
2017-09-02T03:10:57.039Z,62.5
2017-09-02T03:11:37.487Z,62.5
2017-09-02T03:12:17.935Z,62.5
2017-09-02T03:12:58.414Z,62.4
2017-09-02T03:13:38.838Z,62.21
2017-09-02T03:14:19.291Z,62.21
2017-09-02T03:14:59.741Z,62.21
2017-09-02T03:15:40.189Z,62.01
2017-09-02T03:16:20.643Z,62.11
2017-09-02T03:17:01.094Z,61.92
2017-09-02T03:17:41.549Z,62.01
2017-09-02T03:18:22.000Z,62.11
2017-09-02T03:19:02.458Z,61.92
2017-09-02T03:19:42.922Z,62.11
2017-09-02T03:20:23.375Z,62.11
2017-09-02T03:21:03.832Z,62.01
2017-09-02T03:21:44.299Z,62.3
2017-09-02T03:22:24.761Z,62.11
2017-09-02T03:23:05.220Z,62.01
2017-09-02T03:23:45.673Z,62.3
2017-09-02T03:24:26.125Z,62.11
2017-09-02T03:25:06.581Z,62.3
2017-09-02T03:25:47.024Z,62.11
2017-09-02T03:26:27.555Z,62.3
2017-09-02T03:27:08.023Z,62.4
2017-09-02T03:27:48.476Z,61.82
2017-09-02T03:28:28.924Z,62.3
2017-09-02T03:29:09.375Z,62.11
2017-09-02T03:29:49.824Z,62.4
2017-09-02T03:30:30.281Z,62.11
2017-09-02T03:31:10.734Z,62.3
2017-09-02T03:31:51.184Z,62.21
2017-09-02T03:32:31.637Z,62.11
2017-09-02T03:33:12.091Z,62.4
2017-09-02T03:33:52.545Z,62.69
2017-09-02T03:34:32.996Z,62.4
2017-09-02T03:35:13.461Z,62.37
2017-09-02T03:35:53.900Z,62.56
2017-09-02T03:36:34.357Z,62.47
2017-09-02T03:37:14.814Z,62.4
2017-09-02T03:37:55.270Z,62.69
2017-09-02T03:39:48.010Z,62.5
2017-09-02T03:40:28.464Z,62.66
2017-09-02T03:41:08.924Z,62.3
2017-09-02T03:41:49.386Z,62.5
2017-09-02T03:42:29.840Z,62.21
2017-09-02T03:43:10.317Z,62.11
2017-09-02T03:43:50.751Z,62.3
2017-09-02T03:44:31.210Z,62.3
2017-09-02T03:45:11.657Z,62.21
2017-09-02T03:45:52.115Z,62.66
2017-09-02T03:46:32.568Z,62.21
2017-09-02T03:47:13.017Z,62.4
2017-09-02T03:47:53.480Z,62.3
2017-09-02T03:48:33.941Z,62.59
2017-09-02T03:49:14.392Z,62.4
2017-09-02T03:49:54.879Z,62.56
2017-09-02T03:50:35.395Z,62.5
2017-09-02T03:51:15.854Z,62.18
2017-09-02T03:51:56.310Z,62.69
2017-09-02T03:53:48.902Z,62.3
2017-09-02T03:54:29.352Z,62.21
2017-09-02T03:55:09.794Z,62.47
2017-09-02T03:55:50.243Z,62.18
2017-09-02T03:56:30.703Z,62.27
2017-09-02T03:57:11.152Z,62.18
2017-09-02T03:57:51.608Z,62.21
2017-09-02T03:58:32.058Z,62.21
2017-09-02T03:59:12.513Z,62.21
2017-09-02T03:59:52.958Z,62.11
2017-09-02T04:00:33.404Z,62.4
2017-09-02T04:01:13.851Z,62.56
2017-09-02T04:01:54.307Z,62.66
2017-09-02T04:02:34.774Z,62.66
2017-09-02T04:03:15.218Z,62.66
2017-09-02T04:03:55.668Z,62.76
2017-09-02T04:04:36.197Z,62.27
2017-09-02T04:05:16.646Z,62.37
2017-09-02T04:05:57.102Z,62.37
2017-09-02T04:06:37.566Z,62.47
2017-09-02T04:07:18.015Z,62.37
2017-09-02T04:07:58.471Z,62.47
2017-09-02T04:08:38.931Z,62.47
2017-09-02T04:09:19.382Z,62.56
2017-09-02T04:09:59.906Z,62.66
2017-09-02T04:10:40.367Z,62.95
2017-09-02T04:11:20.819Z,62.66
2017-09-02T04:12:01.380Z,62.66
2017-09-02T04:12:41.820Z,62.76
2017-09-02T04:13:22.282Z,62.66
2017-09-02T04:14:02.728Z,62.56
2017-09-02T04:14:43.176Z,62.76
2017-09-02T04:15:23.646Z,62.76
2017-09-02T04:16:04.090Z,62.47
2017-09-02T04:16:44.544Z,62.66
2017-09-02T04:17:25.019Z,62.66
2017-09-02T04:18:05.483Z,62.66
2017-09-02T04:18:45.942Z,62.56
2017-09-02T04:19:26.409Z,62.85
2017-09-02T04:20:06.863Z,62.66
2017-09-02T04:20:47.322Z,62.66
2017-09-02T04:21:27.788Z,62.85
2017-09-02T04:22:08.216Z,62.95
2017-09-02T04:22:48.673Z,62.85
2017-09-02T04:23:29.111Z,62.85
2017-09-02T04:24:09.567Z,62.85
2017-09-02T04:24:50.022Z,62.95
2017-09-02T04:25:30.472Z,62.85
2017-09-02T04:26:10.926Z,62.85
2017-09-02T04:26:51.388Z,62.85
2017-09-02T04:27:31.857Z,62.95
2017-09-02T04:28:12.304Z,62.95
2017-09-02T04:28:52.765Z,62.95
2017-09-02T04:29:33.238Z,63.05
2017-09-02T04:30:13.697Z,63.05
2017-09-02T04:30:54.156Z,62.85
2017-09-02T04:31:34.609Z,62.76
2017-09-02T04:32:15.075Z,62.85
2017-09-02T04:32:55.552Z,62.76
2017-09-02T04:33:36.007Z,62.85
2017-09-02T04:34:16.456Z,62.85
2017-09-02T04:34:56.925Z,62.85
2017-09-02T04:35:37.366Z,62.95
2017-09-02T04:36:17.813Z,62.95
2017-09-02T04:36:58.271Z,62.95
2017-09-02T04:37:38.721Z,62.95
2017-09-02T04:38:19.179Z,62.95
2017-09-02T04:38:59.628Z,62.95
2017-09-02T04:39:40.136Z,62.95
2017-09-02T04:40:20.593Z,62.56
2017-09-02T04:41:01.051Z,62.85
2017-09-02T04:41:41.503Z,63.24
2017-09-02T04:42:21.967Z,62.56
2017-09-02T04:43:02.408Z,63.05
2017-09-02T04:43:42.863Z,62.95
2017-09-02T04:44:23.329Z,62.66
2017-09-02T04:45:03.773Z,63.34
2017-09-02T04:45:44.232Z,62.95
2017-09-02T04:46:24.697Z,63.34
2017-09-02T04:47:05.156Z,63.14
2017-09-02T04:47:45.616Z,63.14
2017-09-02T04:48:26.072Z,63.34
2017-09-02T04:49:06.533Z,63.24
2017-09-02T04:49:46.991Z,63.14
2017-09-02T04:50:27.459Z,63.14
2017-09-02T04:51:07.916Z,63.14
2017-09-02T04:51:48.374Z,63.14
2017-09-02T04:52:28.830Z,63.24
2017-09-02T04:53:09.284Z,63.14
2017-09-02T04:53:49.744Z,63.24
2017-09-02T04:54:30.187Z,63.14
2017-09-02T04:55:10.747Z,63.14
2017-09-02T04:55:51.197Z,63.24
2017-09-02T04:56:31.657Z,63.24
2017-09-02T04:57:12.113Z,63.24
2017-09-02T04:57:52.564Z,63.24
2017-09-02T04:58:33.020Z,63.24
2017-09-02T04:59:13.476Z,63.34
2017-09-02T04:59:53.925Z,63.24
2017-09-02T05:00:34.411Z,63.24
2017-09-02T05:01:14.859Z,63.24
2017-09-02T05:01:55.321Z,63.24
2017-09-02T05:02:35.780Z,63.24
2017-09-02T05:03:16.237Z,63.24
2017-09-02T05:03:56.691Z,63.34
2017-09-02T05:04:37.147Z,63.24
2017-09-02T05:05:17.603Z,63.14
2017-09-02T05:05:58.065Z,63.14
2017-09-02T05:06:38.514Z,63.14
2017-09-02T05:07:18.976Z,63.24
2017-09-02T05:07:59.425Z,63.43
2017-09-02T05:08:39.881Z,63.43
2017-09-02T05:09:20.339Z,63.24
2017-09-02T05:10:00.849Z,63.14
2017-09-02T05:10:41.298Z,63.43
2017-09-02T05:11:21.755Z,63.05
2017-09-02T05:12:02.207Z,63.14
2017-09-02T05:12:42.654Z,63.34
2017-09-02T05:13:23.111Z,63.14
2017-09-02T05:14:03.560Z,63.14
2017-09-02T05:14:44.012Z,63.24
2017-09-02T05:15:24.468Z,63.24
2017-09-02T05:16:04.918Z,63.14
2017-09-02T05:16:45.367Z,63.14
2017-09-02T05:17:25.805Z,63.24
2017-09-02T05:18:06.255Z,62.76
2017-09-02T05:18:46.711Z,63.14
2017-09-02T05:19:27.162Z,63.14
2017-09-02T05:20:07.608Z,63.14
2017-09-02T05:20:48.069Z,63.24
2017-09-02T05:21:28.528Z,63.14
2017-09-02T05:23:46.512Z,63.24
2017-09-02T05:24:26.964Z,63.34
2017-09-02T05:25:07.415Z,63.14
2017-09-02T05:25:47.894Z,63.14
2017-09-02T05:26:28.319Z,63.05
2017-09-02T05:27:08.773Z,63.14
2017-09-02T05:27:49.226Z,63.14
2017-09-02T05:28:29.675Z,63.24
2017-09-02T05:29:10.165Z,63.24
2017-09-02T05:29:50.624Z,63.24
2017-09-02T05:30:31.079Z,63.24
2017-09-02T05:31:11.537Z,63.34
2017-09-02T05:31:51.995Z,63.24
2017-09-02T05:32:32.449Z,63.24
2017-09-02T05:33:12.897Z,63.14
2017-09-02T05:33:53.345Z,63.34
2017-09-02T05:34:33.804Z,63.14
2017-09-02T05:35:14.253Z,63.14
2017-09-02T05:35:54.708Z,63.14
2017-09-02T05:36:35.159Z,63.14
2017-09-02T05:37:15.617Z,63.14
2017-09-02T05:39:08.219Z,63.34
2017-09-02T05:39:48.673Z,63.24
2017-09-02T05:40:29.129Z,63.34
2017-09-02T05:41:09.582Z,63.24
2017-09-02T05:41:50.050Z,63.14
2017-09-02T05:42:30.495Z,63.14
2017-09-02T05:43:10.952Z,63.34
2017-09-02T05:43:51.413Z,63.24
2017-09-02T05:44:31.858Z,62.95
2017-09-02T05:45:12.308Z,62.95
2017-09-02T05:45:52.759Z,62.76
2017-09-02T05:46:33.216Z,62.95
2017-09-02T05:47:13.664Z,63.05
2017-09-02T05:47:54.156Z,62.95
2017-09-02T05:48:34.582Z,62.76
2017-09-02T05:49:15.032Z,62.76
2017-09-02T05:49:55.479Z,62.76
2017-09-02T05:50:35.960Z,62.95
2017-09-02T05:51:16.390Z,62.85
2017-09-02T05:51:56.841Z,62.85
2017-09-02T05:52:37.292Z,62.95
2017-09-02T05:53:17.733Z,62.95
2017-09-02T05:53:58.181Z,62.85
2017-09-02T05:54:38.621Z,62.85
2017-09-02T05:55:19.063Z,62.95
2017-09-02T05:55:59.513Z,62.95
2017-09-02T05:56:39.962Z,62.95
2017-09-02T05:57:20.399Z,62.85
2017-09-02T05:58:00.942Z,62.85
2017-09-02T05:59:48.454Z,62.85
2017-09-02T06:00:28.919Z,62.85
2017-09-02T06:01:09.379Z,62.85
2017-09-02T06:01:49.831Z,62.85
2017-09-02T06:02:30.282Z,62.85
2017-09-02T06:03:10.747Z,62.95
2017-09-02T06:03:51.195Z,62.95
2017-09-02T06:04:31.660Z,62.76
2017-09-02T06:05:12.108Z,62.85
2017-09-02T06:05:52.553Z,62.85
2017-09-02T06:06:33.010Z,62.85
2017-09-02T06:07:13.463Z,62.76
2017-09-02T06:07:53.920Z,62.85
2017-09-02T06:08:34.366Z,62.95
2017-09-02T06:09:14.818Z,62.76
2017-09-02T06:09:55.260Z,62.85
2017-09-02T06:10:35.713Z,62.76
2017-09-02T06:11:16.176Z,62.85
2017-09-02T06:11:56.641Z,62.95
2017-09-02T06:12:37.104Z,62.85
2017-09-02T06:13:17.558Z,62.85
2017-09-02T06:13:57.997Z,62.95
2017-09-02T06:14:38.445Z,62.76
2017-09-02T06:15:18.898Z,62.95
2017-09-02T06:15:59.356Z,62.95
2017-09-02T06:16:39.817Z,62.76
2017-09-02T06:17:20.267Z,62.95
2017-09-02T06:18:00.723Z,62.95
2017-09-02T06:18:41.166Z,63.05
2017-09-02T06:19:21.618Z,63.05
2017-09-02T06:20:02.072Z,62.95
2017-09-02T06:20:42.521Z,62.85
2017-09-02T06:21:22.979Z,62.85
2017-09-02T06:22:03.432Z,62.85
2017-09-02T06:22:43.895Z,62.85
2017-09-02T06:23:24.351Z,62.95
2017-09-02T06:24:04.812Z,62.85
2017-09-02T06:24:45.266Z,62.76
2017-09-02T06:25:25.728Z,62.76
2017-09-02T06:26:06.184Z,62.76
2017-09-02T06:26:46.687Z,62.85
2017-09-02T06:27:27.102Z,63.14
2017-09-02T06:28:07.550Z,62.85
2017-09-02T06:28:48.019Z,63.05
2017-09-02T06:29:28.507Z,62.95
2017-09-02T06:30:09.002Z,62.95
2017-09-02T06:30:49.459Z,62.85
2017-09-02T06:31:29.906Z,63.05
2017-09-02T06:33:47.892Z,62.95
2017-09-02T06:34:28.349Z,62.95
2017-09-02T06:35:08.803Z,63.14
2017-09-02T06:35:49.251Z,63.05
2017-09-02T06:36:29.703Z,62.85
2017-09-02T06:37:10.159Z,62.76
2017-09-02T06:37:50.610Z,62.95
2017-09-02T06:38:31.062Z,62.85
2017-09-02T06:39:11.520Z,62.95
2017-09-02T06:39:51.972Z,62.66
2017-09-02T06:40:32.430Z,62.85
2017-09-02T06:41:12.888Z,62.85
2017-09-02T06:41:53.340Z,62.95
2017-09-02T06:42:33.808Z,62.95
2017-09-02T06:43:14.260Z,62.95
2017-09-02T06:43:54.707Z,62.66
2017-09-02T06:44:35.151Z,62.85
2017-09-02T06:45:15.598Z,62.76
2017-09-02T06:45:56.043Z,62.85
2017-09-02T06:46:36.502Z,62.95
2017-09-02T06:47:16.952Z,63.05
2017-09-02T06:47:57.403Z,62.76
2017-09-02T06:48:37.860Z,62.95
2017-09-02T06:49:18.324Z,62.95
2017-09-02T06:49:58.799Z,62.95
2017-09-02T06:50:39.245Z,63.05
2017-09-02T06:51:19.680Z,63.05
2017-09-02T06:52:00.126Z,62.76
2017-09-02T06:52:40.583Z,62.76
2017-09-02T06:53:21.024Z,62.85
2017-09-02T06:54:01.507Z,62.95
2017-09-02T06:54:41.956Z,62.85
2017-09-02T06:55:22.415Z,62.76
2017-09-02T06:56:02.867Z,62.66
2017-09-02T06:56:43.322Z,62.85
2017-09-02T06:57:23.770Z,62.56
2017-09-02T06:58:04.223Z,62.66
2017-09-02T06:58:44.674Z,62.76
2017-09-02T06:59:25.130Z,62.76
2017-09-02T07:00:05.601Z,62.66
2017-09-02T07:00:46.046Z,62.56
2017-09-02T07:01:26.591Z,62.5
2017-09-02T07:02:07.045Z,62.66
2017-09-02T07:02:47.536Z,62.69
2017-09-02T07:03:28.021Z,62.47
2017-09-02T07:04:08.495Z,62.47
2017-09-02T07:04:48.952Z,62.37
2017-09-02T07:05:29.413Z,62.4
2017-09-02T07:06:10.034Z,62.66
2017-09-02T07:06:50.493Z,62.5
2017-09-02T07:07:30.936Z,62.4
2017-09-02T07:08:11.496Z,62.3
2017-09-02T07:08:51.930Z,62.3
2017-09-02T07:09:32.372Z,62.4
2017-09-02T07:10:12.841Z,62.69
2017-09-02T07:10:53.291Z,62.56
2017-09-02T07:11:33.733Z,62.4
2017-09-02T07:12:14.187Z,62.59
2017-09-02T07:12:54.634Z,62.4
2017-09-02T07:13:35.092Z,62.4
2017-09-02T07:14:15.538Z,62.4
2017-09-02T07:14:56.004Z,62.3
2017-09-02T07:15:36.443Z,62.3
2017-09-02T07:16:16.904Z,62.59
2017-09-02T07:16:57.355Z,62.69
2017-09-02T07:17:37.830Z,62.59
2017-09-02T07:19:30.441Z,62.69
2017-09-02T07:20:10.891Z,62.59
2017-09-02T07:20:51.377Z,62.59
2017-09-02T07:21:31.797Z,62.56
2017-09-02T07:22:12.241Z,62.69
2017-09-02T07:22:52.735Z,62.79
2017-09-02T07:23:33.182Z,62.79
2017-09-02T07:24:13.619Z,62.59
2017-09-02T07:24:54.064Z,62.59
2017-09-02T07:25:34.515Z,62.5
2017-09-02T07:26:14.965Z,62.5
2017-09-02T07:26:55.418Z,62.21
2017-09-02T07:27:35.877Z,62.21
2017-09-02T07:28:16.320Z,62.21
2017-09-02T07:28:56.776Z,62.21
2017-09-02T07:29:37.277Z,62.21
2017-09-02T07:30:17.726Z,62.3
2017-09-02T07:30:58.174Z,62.3
2017-09-02T07:31:38.617Z,62.21
2017-09-02T07:32:19.107Z,62.4
2017-09-02T07:32:59.553Z,62.4
2017-09-02T07:33:40.010Z,62.3
2017-09-02T07:34:20.459Z,61.82
2017-09-02T07:35:00.918Z,62.11
2017-09-02T07:35:41.368Z,62.21
2017-09-02T07:36:21.822Z,62.01
2017-09-02T07:37:02.277Z,62.21
2017-09-02T07:37:42.730Z,62.3
2017-09-02T07:38:23.183Z,62.01
2017-09-02T07:39:03.675Z,62.11
2017-09-02T07:39:44.108Z,62.01
2017-09-02T07:40:24.559Z,62.3
2017-09-02T07:41:05.027Z,62.3
2017-09-02T07:41:45.480Z,62.21
2017-09-02T07:42:25.946Z,62.11
2017-09-02T07:44:43.918Z,62.11
2017-09-02T07:45:24.377Z,62.01
2017-09-02T07:46:04.825Z,62.3
2017-09-02T07:46:45.280Z,62.5
2017-09-02T07:47:25.741Z,62.01
2017-09-02T07:48:06.284Z,62.3
2017-09-02T07:48:46.739Z,62.21
2017-09-02T07:49:27.186Z,62.11
2017-09-02T07:50:07.676Z,62.11
2017-09-02T07:50:48.128Z,62.3
2017-09-02T07:51:28.583Z,61.72
2017-09-02T07:52:09.033Z,61.92
2017-09-02T07:52:49.487Z,62.01
2017-09-02T07:53:29.936Z,62.01
2017-09-02T07:54:10.381Z,61.72
2017-09-02T07:54:50.834Z,61.72
2017-09-02T07:55:31.293Z,61.92
2017-09-02T07:56:11.743Z,61.63
2017-09-02T07:56:52.203Z,61.82
2017-09-02T07:57:32.653Z,61.85
2017-09-02T07:58:13.131Z,61.53
2017-09-02T07:58:53.585Z,61.36
2017-09-02T07:59:34.042Z,61.33
2017-09-02T08:00:14.492Z,61.27
2017-09-02T08:00:54.943Z,61.33
2017-09-02T08:01:35.412Z,61.33
2017-09-02T08:02:15.866Z,61.46
2017-09-02T08:02:56.318Z,61.46
2017-09-02T08:03:36.782Z,61.76
2017-09-02T08:04:17.228Z,61.66
2017-09-02T08:04:57.681Z,61.56
2017-09-02T08:05:38.134Z,61.46
2017-09-02T08:07:30.729Z,61.56
2017-09-02T08:08:11.191Z,61.36
2017-09-02T08:08:51.641Z,61.27
2017-09-02T08:09:32.136Z,61.36
2017-09-02T08:10:12.589Z,61.56
2017-09-02T08:10:53.057Z,61.76
2017-09-02T08:11:33.513Z,61.56
2017-09-02T08:12:13.970Z,61.56
2017-09-02T08:12:54.425Z,61.46
2017-09-02T08:13:34.880Z,61.27
2017-09-02T08:14:15.333Z,61.08
2017-09-02T08:14:55.841Z,61.27
2017-09-02T08:15:36.266Z,61.27
2017-09-02T08:16:16.714Z,60.88
2017-09-02T08:16:57.168Z,60.78
2017-09-02T08:17:37.623Z,61.08
2017-09-02T08:18:18.065Z,60.88
2017-09-02T08:18:58.519Z,61.18
2017-09-02T08:19:38.968Z,61.18
2017-09-02T08:20:19.426Z,61.08
2017-09-02T08:20:59.865Z,61.08
2017-09-02T08:21:40.314Z,61.27
2017-09-02T08:22:20.761Z,61.08
2017-09-02T08:23:01.204Z,61.18
2017-09-02T08:23:41.658Z,61.27
2017-09-02T08:24:22.105Z,61.08
2017-09-02T08:25:02.558Z,61.08
2017-09-02T08:25:43.002Z,60.88
2017-09-02T08:26:23.454Z,61.4
2017-09-02T08:27:03.908Z,60.82
2017-09-02T08:27:44.364Z,60.82
2017-09-02T08:28:24.818Z,60.91
2017-09-02T08:29:05.270Z,60.82
2017-09-02T08:29:45.730Z,60.72
2017-09-02T08:30:26.184Z,60.43
2017-09-02T08:31:06.753Z,60.33
2017-09-02T08:31:47.209Z,60.33
2017-09-02T08:32:27.674Z,60.14
2017-09-02T08:33:08.135Z,60.33
2017-09-02T08:33:48.576Z,60.33
2017-09-02T08:34:29.020Z,60.24
2017-09-02T08:35:09.463Z,59.56
2017-09-02T08:35:49.914Z,59.75
2017-09-02T08:36:30.383Z,59.88
2017-09-02T08:37:10.836Z,60.07
2017-09-02T08:37:51.289Z,59.69
2017-09-02T08:38:31.742Z,60.07
2017-09-02T08:39:12.218Z,59.78
2017-09-02T08:39:52.695Z,60.07
2017-09-02T08:40:33.152Z,60.17
2017-09-02T08:41:13.601Z,59.97
2017-09-02T08:41:54.062Z,59.78
2017-09-02T08:42:34.511Z,59.78
2017-09-02T08:43:14.958Z,59.81
2017-09-02T08:43:55.406Z,59.61
2017-09-02T08:44:35.860Z,59.59
2017-09-02T08:45:16.335Z,59.23
2017-09-02T08:45:56.802Z,59.42
2017-09-02T08:46:37.247Z,59.23
2017-09-02T08:47:17.705Z,59.33
2017-09-02T08:47:58.155Z,59.33
2017-09-02T08:48:38.614Z,59.42
2017-09-02T08:49:19.072Z,58.74
2017-09-02T08:49:59.518Z,58.36
2017-09-02T08:50:39.968Z,58.74
2017-09-02T08:51:20.415Z,58.65
2017-09-02T08:52:00.895Z,58.65
2017-09-02T08:52:41.350Z,58.48
2017-09-02T08:53:21.810Z,58.48
2017-09-02T08:54:02.269Z,58.48
2017-09-02T08:54:42.716Z,58.58
2017-09-02T08:55:23.171Z,58.67
2017-09-02T08:56:03.625Z,58.09
2017-09-02T08:56:44.072Z,58.19
2017-09-02T08:57:24.518Z,58.09